createdAt,value
2023-08-29T00:02:13.432Z,99604.88
2023-08-29T00:04:45.646Z,99601.64
2023-08-29T00:07:17.606Z,99600.65
2023-08-29T00:09:49.576Z,99596.50
2023-08-29T00:12:22.090Z,99583.58
2023-08-29T00:14:54.698Z,99574.27
2023-08-29T00:17:33.228Z,99574.45
2023-08-29T00:20:08.871Z,99566.61
2023-08-29T00:22:45.225Z,99554.31
2023-08-29T00:25:17.515Z,99552.55
2023-08-29T00:27:54.336Z,99545.77
2023-08-29T00:30:26.770Z,99538.86
2023-08-29T00:32:58.867Z,99536.63
2023-08-29T00:35:33.111Z,99540.92
2023-08-29T00:38:07.531Z,99538.71
2023-08-29T00:40:52.682Z,99538.19
2023-08-29T00:43:27.861Z,99531.42
2023-08-29T00:46:02.384Z,99535.62
2023-08-29T00:48:35.425Z,99525.24
2023-08-29T00:51:07.914Z,99514.57
2023-08-29T00:53:40.431Z,99505.77
2023-08-29T00:56:20.560Z,99511.89
2023-08-29T00:58:56.729Z,99515.27
2023-08-29T01:01:30.516Z,99515.48
2023-08-29T01:04:06.288Z,99516.69
2023-08-29T01:06:41.676Z,99513.48
2023-08-29T01:09:15.297Z,99510.48
2023-08-29T01:11:57.176Z,99504.69
2023-08-29T01:14:39.192Z,99501.17
2023-08-29T01:17:18.069Z,99497.95
2023-08-29T01:19:56.836Z,99495.77
2023-08-29T01:22:39.758Z,99489.23
2023-08-29T01:25:20.577Z,99488.15
2023-08-29T01:27:58.887Z,99486.30
2023-08-29T01:30:33.532Z,99479.16
2023-08-29T01:33:06.168Z,99470.40
2023-08-29T01:35:45.254Z,99463.34
2023-08-29T01:38:21.510Z,99449.73
2023-08-29T01:41:00.751Z,99446.02
2023-08-29T01:43:36.530Z,99434.62
2023-08-29T01:46:08.805Z,99424.81
2023-08-29T01:48:49.625Z,99425.16
2023-08-29T01:51:22.375Z,99423.79
2023-08-29T01:53:57.682Z,99416.98
2023-08-29T01:56:34.204Z,99413.26
2023-08-29T01:59:10.603Z,99405.27
2023-08-29T02:01:58.866Z,99395.11
2023-08-29T02:04:34.582Z,99386.06
2023-08-29T02:07:06.845Z,99377.02
2023-08-29T02:09:39.664Z,99363.80
2023-08-29T02:12:11.930Z,99358.30
2023-08-29T02:14:45.746Z,99344.94
2023-08-29T02:17:17.850Z,99338.16
2023-08-29T02:19:52.616Z,99333.35
2023-08-29T02:22:26.827Z,99328.42
2023-08-29T02:25:01.241Z,99325.79
2023-08-29T02:27:34.360Z,99318.46
2023-08-29T02:30:09.680Z,99322.20
2023-08-29T02:32:46.072Z,99319.51
2023-08-29T02:35:25.746Z,99312.30
2023-08-29T02:38:00.568Z,99309.44
2023-08-29T02:40:43.548Z,99300.36
2023-08-29T02:43:18.848Z,99297.40
2023-08-29T02:45:54.690Z,99297.69
2023-08-29T02:48:28.586Z,99290.48
2023-08-29T02:51:00.816Z,99285.06
2023-08-29T02:53:33.037Z,99272.67
2023-08-29T02:56:05.690Z,99266.13
2023-08-29T02:58:45.934Z,99254.04
2023-08-29T03:01:21.825Z,99253.24
2023-08-29T03:03:54.347Z,99256.59
2023-08-29T03:06:28.897Z,99256.66
2023-08-29T03:09:13.507Z,99248.80
2023-08-29T03:11:48.025Z,99240.10
2023-08-29T03:14:20.241Z,99231.80
2023-08-29T03:17:00.151Z,99233.14
2023-08-29T03:19:38.546Z,99238.77
2023-08-29T03:22:11.685Z,99240.27
2023-08-29T03:24:50.444Z,99259.64
2023-08-29T03:27:23.502Z,99324.21
2023-08-29T03:29:58.529Z,99410.89
2023-08-29T03:32:34.262Z,99459.27
2023-08-29T03:35:13.225Z,99441.14
2023-08-29T03:37:45.967Z,99422.45
2023-08-29T03:40:18.330Z,99431.20
2023-08-29T03:42:51.123Z,99427.45
2023-08-29T03:45:23.203Z,99436.30
2023-08-29T03:47:58.131Z,99437.97
2023-08-29T03:50:40.682Z,99414.69
2023-08-29T03:53:12.731Z,99411.45
2023-08-29T03:55:48.389Z,99417.73
2023-08-29T03:58:24.590Z,99402.13
2023-08-29T04:01:00.715Z,99405.33
2023-08-29T04:03:41.660Z,99396.86
2023-08-29T04:06:15.480Z,99398.98
2023-08-29T04:08:58.555Z,99403.26
2023-08-29T04:11:41.190Z,99417.59
2023-08-29T04:14:13.523Z,99415.37
2023-08-29T04:16:47.707Z,99415.17
2023-08-29T04:19:28.824Z,99412.97
2023-08-29T04:22:00.851Z,99406.80
2023-08-29T04:24:35.865Z,99417.60
2023-08-29T04:27:12.510Z,99414.58
2023-08-29T04:29:45.814Z,99407.66
2023-08-29T04:32:18.622Z,99414.66
2023-08-29T04:34:51.465Z,99406.55
2023-08-29T04:37:23.423Z,99410.43
2023-08-29T04:39:57.921Z,99415.02
2023-08-29T04:42:32.470Z,99401.55
2023-08-29T04:45:13.940Z,99409.34
2023-08-29T04:47:51.224Z,99422.42
2023-08-29T04:50:23.674Z,99411.05
2023-08-29T04:52:57.222Z,99418.52
2023-08-29T04:55:32.557Z,99421.64
2023-08-29T04:58:05.014Z,99414.34
2023-08-29T05:00:38.267Z,99416.44
2023-08-29T05:03:11.065Z,99422.88
2023-08-29T05:05:49.099Z,99412.48
2023-08-29T05:08:24.363Z,99413.88
2023-08-29T05:10:58.245Z,99412.42
2023-08-29T05:13:33.332Z,99410.44
2023-08-29T05:16:07.081Z,99425.84
2023-08-29T05:18:39.474Z,99419.70
2023-08-29T05:21:11.943Z,99411.31
2023-08-29T05:23:46.223Z,99399.80
2023-08-29T05:26:27.849Z,99391.20
2023-08-29T05:28:59.809Z,99399.18
2023-08-29T05:31:33.153Z,99395.07
2023-08-29T05:34:05.170Z,99388.41
2023-08-29T05:36:38.368Z,99381.42
2023-08-29T05:39:10.559Z,99367.39
2023-08-29T05:41:42.859Z,99371.94
2023-08-29T05:44:14.968Z,99367.34
2023-08-29T05:46:50.992Z,99366.70
2023-08-29T05:49:24.015Z,99368.19
2023-08-29T05:51:58.776Z,99369.21
2023-08-29T05:54:33.140Z,99369.16
2023-08-29T05:57:08.506Z,99362.14
2023-08-29T05:59:41.765Z,99359.08
2023-08-29T06:02:13.941Z,99356.64
2023-08-29T06:08:13.332Z,99345.49
2023-08-29T06:10:51.289Z,99340.54
2023-08-29T06:13:26.873Z,99339.02
2023-08-29T06:16:01.366Z,99336.66
2023-08-29T06:18:35.661Z,99333.61
2023-08-29T06:21:10.914Z,99329.11
2023-08-29T06:23:45.815Z,99325.42
2023-08-29T06:26:18.760Z,99323.88
2023-08-29T06:28:50.929Z,99324.77
2023-08-29T06:31:25.790Z,99323.76
2023-08-29T06:34:00.934Z,99315.98
2023-08-29T06:36:33.052Z,99312.22
2023-08-29T06:39:14.773Z,99300.48
2023-08-29T06:41:47.636Z,99302.66
2023-08-29T06:44:19.981Z,99302.96
2023-08-29T06:46:52.833Z,99302.38
2023-08-29T06:49:30.209Z,99308.88
2023-08-29T06:52:03.899Z,99318.27
2023-08-29T06:54:39.430Z,99324.39
2023-08-29T06:57:12.937Z,99325.52
2023-08-29T06:59:48.685Z,99330.09
2023-08-29T07:02:34.854Z,99326.70
2023-08-29T07:05:08.309Z,99321.89
2023-08-29T07:07:41.925Z,99311.98
2023-08-29T07:10:14.456Z,99305.93
2023-08-29T07:12:48.388Z,99298.98
2023-08-29T07:15:23.897Z,99294.03
2023-08-29T07:17:58.151Z,99299.34
2023-08-29T07:20:35.830Z,99297.27
2023-08-29T07:23:09.856Z,99297.96
2023-08-29T07:25:47.715Z,99303.87
2023-08-29T07:28:23.029Z,99311.04
2023-08-29T07:31:01.832Z,99312.10
2023-08-29T07:33:34.934Z,99312.67
2023-08-29T07:36:08.538Z,99329.63
2023-08-29T07:38:42.570Z,99340.91
2023-08-29T07:41:25.462Z,99345.12
2023-08-29T07:44:03.953Z,99344.14
2023-08-29T07:46:36.887Z,99343.58
2023-08-29T07:49:17.492Z,99345.77
2023-08-29T07:52:03.138Z,99350.02
2023-08-29T07:54:39.190Z,99346.44
2023-08-29T07:57:18.397Z,99352.65
2023-08-29T07:59:50.919Z,99353.79
2023-08-29T08:02:23.403Z,99350.30
2023-08-29T08:05:07.729Z,99356.19
2023-08-29T08:07:46.844Z,99346.98
2023-08-29T08:10:22.623Z,99346.67
2023-08-29T08:13:17.327Z,99341.67
2023-08-29T08:15:54.413Z,99334.93
2023-08-29T08:18:29.780Z,99335.09
2023-08-29T08:21:05.829Z,99337.45
2023-08-29T08:23:53.562Z,99347.45
2023-08-29T08:26:34.486Z,99349.18
2023-08-29T08:29:13.720Z,99349.61
2023-08-29T08:31:50.851Z,99359.22
2023-08-29T08:34:25.123Z,99362.69
2023-08-29T08:36:59.749Z,99365.97
2023-08-29T08:39:40.135Z,99363.40
2023-08-29T08:42:17.423Z,99361.21
2023-08-29T08:44:53.408Z,99366.11
2023-08-29T08:47:27.790Z,99371.77
2023-08-29T08:50:02.066Z,99374.04
2023-08-29T08:52:36.656Z,99378.93
2023-08-29T08:55:14.577Z,99383.45
2023-08-29T08:57:52.431Z,99390.37
2023-08-29T09:00:31.352Z,99386.24
2023-08-29T09:03:05.505Z,99384.98
2023-08-29T09:05:40.365Z,99394.95
2023-08-29T09:08:13.189Z,99395.81
2023-08-29T09:10:47.817Z,99385.56
2023-08-29T09:13:21.932Z,99386.66
2023-08-29T09:15:54.028Z,99388.45
2023-08-29T09:18:30.356Z,99386.18
2023-08-29T09:21:06.343Z,99388.71
2023-08-29T09:23:41.820Z,99381.63
2023-08-29T09:26:15.346Z,99379.48
2023-08-29T09:28:47.976Z,99376.29
2023-08-29T09:31:20.032Z,99374.73
2023-08-29T09:33:52.240Z,99370.90
2023-08-29T09:36:26.974Z,99369.62
2023-08-29T09:39:01.285Z,99369.04
2023-08-29T09:41:34.014Z,99367.69
2023-08-29T09:44:14.685Z,99370.38
2023-08-29T09:46:50.736Z,99368.93
2023-08-29T09:49:23.306Z,99370.40
2023-08-29T09:52:02.693Z,99374.27
2023-08-29T09:54:37.057Z,99376.40
2023-08-29T09:57:10.833Z,99371.86
2023-08-29T09:59:46.574Z,99374.41
2023-08-29T10:02:21.778Z,99376.02
2023-08-29T10:04:57.916Z,99378.38
2023-08-29T10:07:35.823Z,99387.54
2023-08-29T10:10:11.590Z,99388.80
2023-08-29T10:12:45.709Z,99387.30
2023-08-29T10:15:19.505Z,99383.40
2023-08-29T10:17:57.238Z,99386.55
2023-08-29T10:20:30.280Z,99387.67
2023-08-29T10:23:09.310Z,99373.02
2023-08-29T10:25:45.415Z,99369.18
2023-08-29T10:28:19.105Z,99370.06
2023-08-29T10:30:57.124Z,99370.59
2023-08-29T10:33:32.602Z,99373.88
2023-08-29T10:36:10.911Z,99371.30
2023-08-29T10:38:48.714Z,99369.39
2023-08-29T10:41:23.325Z,99355.37
2023-08-29T10:44:34.108Z,99348.81
2023-08-29T10:47:21.619Z,99349.48
2023-08-29T10:50:00.497Z,99357.05
2023-08-29T10:52:47.985Z,99358.81
2023-08-29T10:55:29.999Z,99363.55
2023-08-29T10:58:37.138Z,99363.97
2023-08-29T11:01:33.025Z,99369.65
2023-08-29T11:04:14.137Z,99374.39
2023-08-29T11:06:58.234Z,99378.79
2023-08-29T11:09:31.438Z,99379.06
2023-08-29T11:12:12.322Z,99383.77
2023-08-29T11:14:58.059Z,99383.56
2023-08-29T11:17:30.221Z,99377.63
2023-08-29T11:20:03.866Z,99362.59
2023-08-29T11:22:36.056Z,99356.80
2023-08-29T11:25:10.263Z,99356.59
2023-08-29T11:27:49.854Z,99353.61
2023-08-29T11:30:31.249Z,99346.54
2023-08-29T11:33:11.084Z,99346.73
2023-08-29T11:35:44.265Z,99346.19
2023-08-29T11:38:17.469Z,99345.72
2023-08-29T11:41:03.642Z,99344.22
2023-08-29T11:44:41.635Z,99348.73
2023-08-29T11:46:37.430Z,99352.91
2023-08-29T11:49:18.581Z,99361.48
2023-08-29T11:51:56.681Z,99364.26
2023-08-29T11:54:54.331Z,99374.92
2023-08-29T11:57:31.141Z,99373.81
2023-08-29T12:00:16.677Z,99374.63
2023-08-29T12:02:51.496Z,99373.63
2023-08-29T12:05:27.193Z,99371.38
2023-08-29T12:07:59.209Z,99368.46
2023-08-29T12:10:32.701Z,99371.95
2023-08-29T12:13:17.625Z,99369.25
2023-08-29T12:15:52.434Z,99365.80
2023-08-29T12:18:26.185Z,99364.13
2023-08-29T12:21:16.716Z,99366.58
2023-08-29T12:23:49.268Z,99367.56
2023-08-29T12:26:25.906Z,99377.83
2023-08-29T12:28:58.538Z,99378.31
2023-08-29T12:31:30.879Z,99382.41
2023-08-29T12:34:02.915Z,99382.92
2023-08-29T12:36:34.987Z,99384.26
2023-08-29T12:39:09.881Z,99385.91
2023-08-29T12:41:48.385Z,99379.45
2023-08-29T12:44:23.550Z,99381.52
2023-08-29T12:46:56.077Z,99383.88
2023-08-29T12:49:28.241Z,99384.76
2023-08-29T12:52:00.534Z,99386.92
2023-08-29T12:54:37.109Z,99383.58
2023-08-29T12:57:09.660Z,99387.98
2023-08-29T12:59:45.050Z,99389.87
2023-08-29T13:02:21.018Z,99386.61
2023-08-29T13:04:56.098Z,99386.55
2023-08-29T13:07:28.187Z,99386.61
2023-08-29T13:10:00.332Z,99388.19
2023-08-29T13:12:34.854Z,99385.09
2023-08-29T13:15:12.478Z,99383.10
2023-08-29T13:17:48.404Z,99392.18
2023-08-29T13:20:21.504Z,99400.82
2023-08-29T13:22:57.423Z,99404.36
2023-08-29T13:25:37.001Z,99404.08
2023-08-29T13:28:11.200Z,99407.37
2023-08-29T13:30:43.781Z,99403.77
2023-08-29T13:33:19.638Z,99400.42
2023-08-29T13:35:53.986Z,99396.88
2023-08-29T13:38:27.863Z,99398.59
2023-08-29T13:40:59.977Z,99396.50
2023-08-29T13:43:33.089Z,99392.66
2023-08-29T13:46:15.791Z,99397.52
2023-08-29T13:48:48.836Z,99395.67
2023-08-29T13:51:25.880Z,99393.70
2023-08-29T13:53:58.246Z,99386.10
2023-08-29T13:56:38.335Z,99380.84
2023-08-29T13:59:15.357Z,99378.53
2023-08-29T14:01:56.144Z,99379.09
2023-08-29T14:04:31.824Z,99372.04
2023-08-29T14:07:16.750Z,99371.41
2023-08-29T14:09:49.483Z,99371.29
2023-08-29T14:12:22.330Z,99368.72
2023-08-29T14:14:54.629Z,99368.09
2023-08-29T14:17:26.869Z,99376.27
2023-08-29T14:20:06.258Z,99379.83
2023-08-29T14:22:46.614Z,99386.13
2023-08-29T14:25:19.380Z,99381.02
2023-08-29T14:27:52.366Z,99379.06
2023-08-29T14:30:24.932Z,99391.16
2023-08-29T14:32:57.811Z,99396.09
2023-08-29T14:35:30.652Z,99404.05
2023-08-29T14:38:06.962Z,99399.83
2023-08-29T14:40:42.261Z,99403.14
2023-08-29T14:43:16.416Z,99403.17
2023-08-29T14:45:53.335Z,99403.56
2023-08-29T14:48:25.381Z,99401.84
2023-08-29T14:50:57.767Z,99409.46
2023-08-29T14:53:30.562Z,99411.13
2023-08-29T14:56:06.465Z,99410.70
2023-08-29T14:58:38.564Z,99417.79
2023-08-29T15:01:15.204Z,99420.79
2023-08-29T15:03:47.687Z,99422.11
2023-08-29T15:06:20.342Z,99414.84
2023-08-29T15:08:52.455Z,99416.41
2023-08-29T15:11:29.510Z,99424.35
2023-08-29T15:14:01.507Z,99429.23
2023-08-29T15:16:36.432Z,99425.63
2023-08-29T15:19:08.552Z,99423.39
2023-08-29T15:21:47.376Z,99423.87
2023-08-29T15:24:22.885Z,99424.80
2023-08-29T15:26:55.379Z,99426.02
2023-08-29T15:29:31.256Z,99428.66
2023-08-29T15:32:06.643Z,99421.48
2023-08-29T15:34:38.961Z,99420.98
2023-08-29T15:37:11.122Z,99424.61
2023-08-29T15:39:46.590Z,99427.38
2023-08-29T15:42:22.602Z,99422.79
2023-08-29T15:44:54.881Z,99419.61
2023-08-29T15:47:29.288Z,99411.89
2023-08-29T15:50:01.460Z,99404.49
2023-08-29T15:52:33.478Z,99405.31
2023-08-29T15:55:06.769Z,99407.98
2023-08-29T15:57:38.800Z,99410.82
2023-08-29T16:00:15.530Z,99411.10
2023-08-29T16:02:56.013Z,99406.10
2023-08-29T16:05:29.938Z,99406.27
2023-08-29T16:08:03.421Z,99397.52
2023-08-29T16:10:38.264Z,99395.73
2023-08-29T16:13:12.899Z,99389.16
2023-08-29T16:15:46.841Z,99383.29
2023-08-29T16:18:18.836Z,99378.95
2023-08-29T16:20:56.129Z,99387.04
2023-08-29T16:23:28.354Z,99389.94
2023-08-29T16:26:13.511Z,99386.09
2023-08-29T16:28:48.995Z,99390.29
2023-08-29T16:31:21.150Z,99392.95
2023-08-29T16:33:53.191Z,99387.23
2023-08-29T16:36:25.422Z,99391.70
2023-08-29T16:39:00.332Z,99398.45
2023-08-29T16:41:32.793Z,99396.91
2023-08-29T16:44:05.567Z,99389.66
2023-08-29T16:46:42.237Z,99390.73
2023-08-29T16:49:15.260Z,99395.96
2023-08-29T16:51:51.191Z,99386.89
2023-08-29T16:54:23.881Z,99377.58
2023-08-29T16:56:59.102Z,99378.22
2023-08-29T16:59:34.588Z,99370.81
2023-08-29T17:02:08.917Z,99362.11
2023-08-29T17:04:41.046Z,99346.50
2023-08-29T17:07:13.925Z,99339.38
2023-08-29T17:09:48.930Z,99350.65
2023-08-29T17:12:22.678Z,99355.39
2023-08-29T17:14:56.128Z,99356.09
2023-08-29T17:17:28.401Z,99369.33
2023-08-29T17:20:00.712Z,99385.25
2023-08-29T17:22:33.169Z,99401.24
2023-08-29T17:25:05.737Z,99415.70
2023-08-29T17:27:39.219Z,99427.73
2023-08-29T17:30:13.492Z,99440.44
2023-08-29T17:32:48.266Z,99442.90
2023-08-29T17:35:20.711Z,99454.10
2023-08-29T17:37:53.012Z,99465.50
2023-08-29T17:40:25.407Z,99468.36
2023-08-29T17:42:57.734Z,99464.77
2023-08-29T17:45:32.200Z,99462.20
2023-08-29T17:48:04.961Z,99462.38
2023-08-29T17:50:37.670Z,99452.33
2023-08-29T17:53:09.950Z,99449.54
2023-08-29T17:55:42.315Z,99448.86
2023-08-29T17:58:16.322Z,99442.78
2023-08-29T18:00:52.752Z,99448.65
2023-08-29T18:03:26.345Z,99451.01
2023-08-29T18:06:10.333Z,99446.90
2023-08-29T18:08:53.806Z,99441.13
2023-08-29T18:11:26.393Z,99433.76
2023-08-29T18:13:58.573Z,99433.86
2023-08-29T18:16:30.726Z,99432.58
2023-08-29T18:19:03.311Z,99424.27
2023-08-29T18:21:35.677Z,99429.02
2023-08-29T18:24:08.654Z,99428.40
2023-08-29T18:26:41.087Z,99430.77
2023-08-29T18:29:13.278Z,99432.73
2023-08-29T18:31:49.628Z,99438.02
2023-08-29T18:34:22.332Z,99425.84
2023-08-29T18:36:57.868Z,99412.91
2023-08-29T18:39:32.234Z,99400.21
2023-08-29T18:42:08.368Z,99402.11
2023-08-29T18:44:40.387Z,99406.29
2023-08-29T18:47:12.813Z,99403.48
2023-08-29T18:49:45.097Z,99383.03
2023-08-29T18:52:17.850Z,99365.45
2023-08-29T18:54:50.647Z,99359.63
2023-08-29T18:57:23.426Z,99357.15
2023-08-29T18:59:55.702Z,99356.88
2023-08-29T19:02:28.301Z,99367.52
2023-08-29T19:05:02.903Z,99372.20
2023-08-29T19:07:35.736Z,99368.93
2023-08-29T19:10:10.417Z,99367.13
2023-08-29T19:12:42.582Z,99377.89
2023-08-29T19:15:16.037Z,99378.48
2023-08-29T19:17:52.151Z,99374.48
2023-08-29T19:20:30.027Z,99379.80
2023-08-29T19:23:02.517Z,99380.95
2023-08-29T19:25:39.993Z,99371.52
2023-08-29T19:28:21.556Z,99371.79
2023-08-29T19:30:55.740Z,99371.39
2023-08-29T19:33:28.242Z,99368.61
2023-08-29T19:36:17.544Z,99370.02
2023-08-29T19:38:59.017Z,99372.10
2023-08-29T19:41:37.554Z,99374.66
2023-08-29T19:44:11.458Z,99380.54
2023-08-29T19:46:43.912Z,99380.54
2023-08-29T19:49:16.699Z,99380.09
2023-08-29T19:51:57.080Z,99374.02
2023-08-29T19:54:34.898Z,99364.57
2023-08-29T19:57:06.638Z,99367.37
2023-08-29T19:59:38.966Z,99372.02
2023-08-29T20:02:11.491Z,99382.39
2023-08-29T20:04:46.347Z,99390.45
2023-08-29T20:07:18.680Z,99400.68
2023-08-29T20:09:51.056Z,99402.03
2023-08-29T20:12:27.626Z,99401.33
2023-08-29T20:15:03.076Z,99400.73
2023-08-29T20:17:37.832Z,99395.91
2023-08-29T20:20:15.778Z,99402.58
2023-08-29T20:22:50.379Z,99410.41
2023-08-29T20:25:27.839Z,99403.00
2023-08-29T20:28:00.054Z,99392.61
2023-08-29T20:30:42.233Z,99376.33
2023-08-29T20:33:15.590Z,99364.21
2023-08-29T20:35:49.403Z,99360.02
2023-08-29T20:38:21.517Z,99354.69
2023-08-29T20:40:54.648Z,99363.48
2023-08-29T20:43:26.765Z,99381.13
2023-08-29T20:46:02.700Z,99384.95
2023-08-29T20:48:34.853Z,99384.26
2023-08-29T20:51:09.917Z,99377.74
2023-08-29T20:53:43.517Z,99373.16
2023-08-29T20:56:15.723Z,99371.89
2023-08-29T20:58:48.022Z,99361.68
2023-08-29T21:01:20.462Z,99350.59
2023-08-29T21:03:53.094Z,99345.80
2023-08-29T21:06:26.809Z,99349.05
2023-08-29T21:09:00.922Z,99356.92
2023-08-29T21:11:33.170Z,99359.70
2023-08-29T21:14:05.222Z,99359.48
2023-08-29T21:16:37.570Z,99353.77
2023-08-29T21:19:15.615Z,99355.23
2023-08-29T21:21:51.074Z,99371.27
2023-08-29T21:24:23.070Z,99393.01
2023-08-29T21:26:56.637Z,99406.08
2023-08-29T21:29:28.602Z,99409.91
2023-08-29T21:32:00.893Z,99415.19
2023-08-29T21:34:35.902Z,99417.48
2023-08-29T21:37:15.862Z,99416.87
2023-08-29T21:39:49.264Z,99412.58
2023-08-29T21:42:21.911Z,99410.11
2023-08-29T21:44:55.844Z,99403.81
2023-08-29T21:47:28.145Z,99399.47
2023-08-29T21:50:00.281Z,99400.50
2023-08-29T21:52:32.560Z,99400.55
2023-08-29T21:55:09.548Z,99398.23
2023-08-29T21:57:45.476Z,99398.70
2023-08-29T22:00:20.817Z,99407.84
2023-08-29T22:02:55.975Z,99416.15
2023-08-29T22:05:30.222Z,99426.79
2023-08-29T22:08:05.235Z,99446.66
2023-08-29T22:11:02.214Z,99462.48
2023-08-29T22:13:36.490Z,99479.00
2023-08-29T22:16:08.793Z,99480.86
2023-08-29T22:18:42.363Z,99482.11
2023-08-29T22:21:14.845Z,99479.48
2023-08-29T22:23:49.547Z,99468.64
2023-08-29T22:26:21.619Z,99460.60
2023-08-29T22:28:56.225Z,99448.42
2023-08-29T22:31:29.800Z,99435.17
2023-08-29T22:34:02.271Z,99431.23
2023-08-29T22:36:35.985Z,99417.11
2023-08-29T22:39:11.499Z,99405.86
2023-08-29T22:41:43.791Z,99403.11
2023-08-29T22:44:18.627Z,99398.49
2023-08-29T22:46:50.648Z,99387.70
2023-08-29T22:49:22.831Z,99379.02
2023-08-29T22:51:54.895Z,99374.42
2023-08-29T22:54:30.652Z,99366.09
2023-08-29T22:57:09.171Z,99369.41
2023-08-29T22:59:41.212Z,99371.93
2023-08-29T23:02:13.586Z,99378.97
2023-08-29T23:04:48.123Z,99383.24
2023-08-29T23:07:21.437Z,99385.94
2023-08-29T23:09:53.944Z,99383.63
2023-08-29T23:12:26.625Z,99380.49
2023-08-29T23:14:59.438Z,99377.47
2023-08-29T23:17:31.535Z,99374.70
2023-08-29T23:20:05.601Z,99378.10
2023-08-29T23:22:37.928Z,99376.77
2023-08-29T23:25:13.980Z,99370.30
2023-08-29T23:27:47.924Z,99371.05
2023-08-29T23:30:20.486Z,99368.90
2023-08-29T23:32:54.258Z,99364.95
2023-08-29T23:35:26.358Z,99354.85
2023-08-29T23:37:58.477Z,99335.88
2023-08-29T23:40:30.669Z,99329.70
2023-08-29T23:43:10.070Z,99331.14
2023-08-29T23:45:42.358Z,99328.11
2023-08-29T23:48:16.456Z,99328.55
2023-08-29T23:50:48.553Z,99336.80
2023-08-29T23:53:20.728Z,99343.85
2023-08-29T23:55:53.023Z,99344.94
2023-08-29T23:58:25.284Z,99342.77
